createdAt,value
2018-09-09T00:00:16.920Z,45.00
2018-09-09T00:02:45.248Z,45.00
2018-09-09T00:05:13.671Z,45.00
2018-09-09T00:07:42.013Z,44.90
2018-09-09T00:10:10.426Z,45.00
2018-09-09T00:12:38.745Z,44.90
2018-09-09T00:15:07.076Z,45.00
2018-09-09T00:17:35.379Z,44.90
2018-09-09T00:20:03.743Z,44.90
2018-09-09T00:22:32.105Z,44.90
2018-09-09T00:25:00.421Z,45.00
2018-09-09T00:27:28.761Z,45.00
2018-09-09T00:29:57.111Z,45.00
2018-09-09T00:32:25.445Z,45.00
2018-09-09T00:34:53.768Z,45.60
2018-09-09T00:37:22.228Z,45.10
2018-09-09T00:39:50.574Z,45.60
2018-09-09T00:42:18.934Z,45.10
2018-09-09T00:44:47.316Z,45.10
2018-09-09T00:47:15.640Z,45.10
2018-09-09T00:49:49.321Z,45.10
2018-09-09T00:52:23.138Z,45.20
2018-09-09T00:54:51.501Z,45.30
2018-09-09T00:57:19.836Z,45.20
2018-09-09T00:59:48.209Z,45.20
2018-09-09T01:02:16.459Z,45.30
2018-09-09T01:04:44.761Z,45.20
2018-09-09T01:07:13.373Z,45.20
2018-09-09T01:09:41.701Z,45.10
2018-09-09T01:12:10.065Z,45.20
2018-09-09T01:14:38.526Z,45.30
2018-09-09T01:17:06.922Z,45.30
2018-09-09T01:19:36.231Z,45.30
2018-09-09T01:22:04.538Z,45.30
2018-09-09T01:24:32.959Z,45.20
2018-09-09T01:27:01.345Z,45.20
2018-09-09T01:29:29.747Z,45.30
2018-09-09T01:31:58.087Z,45.30
2018-09-09T01:34:26.467Z,45.30
2018-09-09T01:36:54.789Z,45.20
2018-09-09T01:39:23.088Z,45.30
2018-09-09T01:41:51.331Z,45.30
2018-09-09T01:44:19.656Z,45.20
2018-09-09T01:46:47.928Z,45.40
2018-09-09T01:49:16.181Z,45.40
2018-09-09T01:51:44.501Z,45.40
2018-09-09T01:54:12.857Z,45.30
2018-09-09T01:56:41.220Z,45.40
2018-09-09T01:59:09.636Z,45.40
2018-09-09T02:01:37.997Z,45.50
2018-09-09T02:04:06.363Z,45.50
2018-09-09T02:06:34.741Z,45.60
2018-09-09T02:09:03.096Z,45.60
2018-09-09T02:11:31.479Z,45.70
2018-09-09T02:13:59.864Z,45.70
2018-09-09T02:16:28.293Z,45.70
2018-09-09T02:18:56.557Z,45.70
2018-09-09T02:21:24.954Z,45.80
2018-09-09T02:23:53.288Z,45.70
2018-09-09T02:26:21.660Z,45.80
2018-09-09T02:28:50.057Z,45.80
2018-09-09T02:31:18.457Z,45.80
2018-09-09T02:33:46.872Z,45.70
2018-09-09T02:36:15.596Z,45.90
2018-09-09T02:38:43.881Z,46.00
2018-09-09T02:41:12.289Z,46.00
2018-09-09T02:43:40.705Z,46.00
2018-09-09T02:46:09.041Z,45.90
2018-09-09T02:48:37.378Z,45.90
2018-09-09T02:51:05.840Z,45.90
2018-09-09T02:53:34.265Z,46.00
2018-09-09T02:56:06.859Z,46.00
2018-09-09T02:58:35.278Z,46.10
2018-09-09T03:01:03.641Z,46.00
2018-09-09T03:03:31.969Z,45.90
2018-09-09T03:06:00.383Z,46.00
2018-09-09T03:08:28.797Z,46.00
2018-09-09T03:11:02.419Z,46.00
2018-09-09T03:13:30.809Z,45.90
2018-09-09T03:15:59.089Z,46.00
2018-09-09T03:18:27.461Z,46.00
2018-09-09T03:20:55.905Z,45.90
2018-09-09T03:23:24.238Z,46.50
2018-09-09T03:25:52.581Z,46.00
2018-09-09T03:28:21.180Z,45.90
2018-09-09T03:30:49.664Z,45.90
2018-09-09T03:33:18.032Z,46.10
2018-09-09T03:35:46.428Z,46.00
2018-09-09T03:38:14.842Z,46.00
2018-09-09T03:40:43.162Z,46.10
2018-09-09T03:43:11.602Z,46.10
2018-09-09T03:45:40.046Z,46.00
2018-09-09T03:48:08.316Z,46.00
2018-09-09T03:50:36.665Z,46.10
2018-09-09T03:53:04.977Z,46.00
2018-09-09T03:55:33.304Z,46.10
2018-09-09T03:58:01.728Z,46.00
2018-09-09T04:00:30.029Z,45.80
2018-09-09T04:02:58.321Z,45.90
2018-09-09T04:05:26.717Z,45.90
2018-09-09T04:07:55.055Z,45.90
2018-09-09T04:10:23.435Z,45.80
2018-09-09T04:12:51.902Z,45.80
2018-09-09T04:15:20.251Z,45.80
2018-09-09T04:17:48.695Z,45.90
2018-09-09T04:20:17.050Z,45.90
2018-09-09T04:22:45.389Z,45.90
2018-09-09T04:25:13.827Z,45.90
2018-09-09T04:27:42.193Z,45.90
2018-09-09T04:30:10.468Z,45.70
2018-09-09T04:32:38.842Z,45.70
2018-09-09T04:35:07.303Z,45.80
2018-09-09T04:37:35.668Z,45.90
2018-09-09T04:40:04.045Z,45.80
2018-09-09T04:42:32.493Z,45.80
2018-09-09T04:45:00.762Z,45.80
2018-09-09T04:47:29.194Z,45.80
2018-09-09T04:49:57.516Z,45.90
2018-09-09T04:52:25.853Z,46.00
2018-09-09T04:54:54.169Z,45.90
2018-09-09T04:57:22.501Z,46.40
2018-09-09T04:59:50.933Z,45.70
2018-09-09T05:02:19.321Z,45.70
2018-09-09T05:04:47.760Z,45.80
2018-09-09T05:07:16.161Z,45.80
2018-09-09T05:09:44.502Z,45.70
2018-09-09T05:12:12.804Z,45.70
2018-09-09T05:14:41.325Z,45.60
2018-09-09T05:17:09.650Z,45.60
2018-09-09T05:19:38.328Z,45.60
2018-09-09T05:22:06.682Z,45.70
2018-09-09T05:24:35.078Z,45.60
2018-09-09T05:27:03.445Z,45.70
2018-09-09T05:29:31.877Z,45.60
2018-09-09T05:32:00.166Z,45.40
2018-09-09T05:34:28.561Z,45.60
2018-09-09T05:36:56.965Z,45.50
2018-09-09T05:39:25.305Z,45.50
2018-09-09T05:41:53.667Z,45.60
2018-09-09T05:44:22.137Z,45.50
2018-09-09T05:46:50.450Z,45.50
2018-09-09T05:49:18.882Z,45.50
2018-09-09T05:51:47.370Z,45.40
2018-09-09T05:54:15.675Z,45.50
2018-09-09T05:56:44.004Z,45.50
2018-09-09T05:59:12.340Z,45.50
2018-09-09T06:01:40.768Z,45.50
2018-09-09T06:04:09.033Z,45.50
2018-09-09T06:06:37.324Z,45.40
2018-09-09T06:09:07.702Z,45.40
2018-09-09T06:11:36.073Z,45.40
2018-09-09T06:14:04.424Z,45.40
2018-09-09T06:16:32.754Z,45.40
2018-09-09T06:19:01.194Z,45.30
2018-09-09T06:21:29.616Z,45.40
2018-09-09T06:23:57.952Z,45.10
2018-09-09T06:26:26.334Z,45.10
2018-09-09T06:28:54.925Z,45.00
2018-09-09T06:31:23.245Z,44.80
2018-09-09T06:33:51.708Z,44.80
2018-09-09T06:36:19.952Z,44.90
2018-09-09T06:38:49.671Z,45.00
2018-09-09T06:41:18.132Z,45.20
2018-09-09T06:43:47.078Z,45.20
2018-09-09T06:46:15.472Z,45.20
2018-09-09T06:48:43.853Z,45.20
2018-09-09T06:51:12.198Z,45.00
2018-09-09T06:53:40.628Z,45.00
2018-09-09T06:56:09.029Z,44.90
2018-09-09T06:58:38.601Z,44.90
2018-09-09T07:01:07.021Z,44.90
2018-09-09T07:03:35.424Z,44.80
2018-09-09T07:06:03.876Z,44.80
2018-09-09T07:08:32.165Z,44.90
2018-09-09T07:11:00.699Z,45.00
2018-09-09T07:13:28.969Z,44.90
2018-09-09T07:15:57.415Z,45.00
2018-09-09T07:18:25.756Z,45.00
2018-09-09T07:20:54.173Z,45.10
2018-09-09T07:23:22.546Z,45.20
2018-09-09T07:25:50.902Z,45.40
2018-09-09T07:28:19.271Z,45.50
2018-09-09T07:30:47.685Z,45.60
2018-09-09T07:33:16.073Z,45.40
2018-09-09T07:35:44.420Z,45.40
2018-09-09T07:38:12.697Z,45.50
2018-09-09T07:40:40.981Z,45.60
2018-09-09T07:43:09.322Z,45.60
2018-09-09T07:45:37.730Z,45.50
2018-09-09T07:48:06.357Z,45.50
2018-09-09T07:50:34.675Z,45.60
2018-09-09T07:53:03.038Z,45.70
2018-09-09T07:55:31.425Z,45.70
2018-09-09T07:57:59.849Z,45.80
2018-09-09T08:00:28.216Z,45.90
2018-09-09T08:02:56.533Z,46.10
2018-09-09T08:05:24.873Z,46.50
2018-09-09T08:07:53.299Z,46.30
2018-09-09T08:10:21.720Z,46.40
2018-09-09T08:12:49.981Z,46.50
2018-09-09T08:15:18.355Z,46.50
2018-09-09T08:17:46.779Z,46.60
2018-09-09T08:20:15.668Z,46.60
2018-09-09T08:22:44.055Z,46.60
2018-09-09T08:25:12.437Z,46.60
2018-09-09T08:27:40.736Z,46.70
2018-09-09T08:30:09.076Z,46.70
2018-09-09T08:32:37.545Z,47.40
2018-09-09T08:35:05.961Z,46.80
2018-09-09T08:37:34.305Z,46.30
2018-09-09T08:40:04.348Z,46.00
2018-09-09T08:42:32.697Z,45.90
2018-09-09T08:45:01.029Z,45.50
2018-09-09T08:47:29.401Z,45.60
2018-09-09T08:49:57.764Z,45.70
2018-09-09T08:52:26.068Z,45.90
2018-09-09T08:54:54.431Z,45.80
2018-09-09T08:57:22.770Z,45.40
2018-09-09T08:59:51.077Z,45.20
2018-09-09T09:02:19.416Z,45.00
2018-09-09T09:04:47.735Z,44.90
2018-09-09T09:07:16.207Z,44.80
2018-09-09T09:09:44.565Z,44.50
2018-09-09T09:12:13.127Z,44.40
2018-09-09T09:14:43.066Z,44.20
2018-09-09T09:17:11.477Z,43.80
2018-09-09T09:19:39.845Z,43.80
2018-09-09T09:22:08.265Z,43.80
2018-09-09T09:24:36.602Z,43.40
2018-09-09T09:27:04.951Z,43.30
2018-09-09T09:29:38.559Z,43.40
2018-09-09T09:32:06.988Z,43.40
2018-09-09T09:34:35.261Z,43.10
2018-09-09T09:37:03.694Z,42.70
2018-09-09T09:39:31.981Z,42.70
2018-09-09T09:42:00.488Z,42.80
2018-09-09T09:44:28.903Z,43.50
2018-09-09T09:46:57.405Z,43.40
2018-09-09T09:49:25.770Z,43.60
2018-09-09T09:51:54.205Z,43.90
2018-09-09T09:54:22.661Z,44.10
2018-09-09T09:56:51.057Z,43.60
2018-09-09T09:59:19.447Z,43.40
2018-09-09T10:01:47.855Z,43.30
2018-09-09T10:04:16.343Z,43.10
2018-09-09T10:06:44.781Z,42.80
2018-09-09T10:09:13.194Z,42.40
2018-09-09T10:11:41.596Z,42.30
2018-09-09T10:14:09.926Z,42.00
2018-09-09T10:16:38.317Z,41.60
2018-09-09T10:19:06.778Z,41.20
2018-09-09T10:21:35.168Z,40.80
2018-09-09T10:24:03.633Z,40.40
2018-09-09T10:26:31.996Z,40.00
2018-09-09T10:29:00.338Z,40.10
2018-09-09T10:31:28.810Z,39.70
2018-09-09T10:33:57.261Z,39.70
2018-09-09T10:36:25.670Z,39.60
2018-09-09T10:38:54.018Z,39.30
2018-09-09T10:41:22.427Z,39.20
2018-09-09T10:43:50.897Z,39.50
2018-09-09T10:46:19.528Z,38.30
2018-09-09T10:48:47.880Z,38.00
2018-09-09T10:51:16.297Z,37.70
2018-09-09T10:53:44.656Z,37.60
2018-09-09T10:56:13.097Z,37.30
2018-09-09T10:58:41.489Z,37.20
2018-09-09T11:01:09.975Z,37.40
2018-09-09T11:03:38.424Z,37.60
2018-09-09T11:06:06.868Z,37.70
2018-09-09T11:08:35.329Z,38.20
2018-09-09T11:11:03.727Z,38.40
2018-09-09T11:13:32.211Z,38.30
2018-09-09T11:16:00.707Z,38.20
2018-09-09T11:18:29.116Z,37.60
2018-09-09T11:20:57.599Z,37.00
2018-09-09T11:23:26.003Z,34.50
2018-09-09T11:25:54.289Z,31.80
2018-09-09T11:28:22.682Z,30.00
2018-09-09T11:30:51.148Z,29.80
2018-09-09T11:33:19.525Z,30.00
2018-09-09T11:35:47.926Z,31.80
2018-09-09T11:38:16.371Z,33.10
2018-09-09T11:40:44.741Z,32.60
2018-09-09T11:43:13.099Z,30.80
2018-09-09T11:45:41.490Z,30.40
2018-09-09T11:48:09.891Z,32.30
2018-09-09T11:50:38.492Z,33.60
2018-09-09T11:53:06.941Z,34.50
2018-09-09T11:55:35.280Z,35.20
2018-09-09T11:58:03.601Z,34.30
2018-09-09T12:00:32.037Z,30.60
2018-09-09T12:03:00.352Z,30.00
2018-09-09T12:05:28.705Z,27.30
2018-09-09T12:07:57.093Z,24.90
2018-09-09T12:10:25.511Z,24.90
2018-09-09T12:12:54.454Z,24.60
2018-09-09T12:15:22.760Z,23.80
2018-09-09T12:17:51.245Z,25.10
2018-09-09T12:20:19.692Z,26.50
2018-09-09T12:22:48.219Z,27.90
2018-09-09T12:25:16.594Z,29.40
2018-09-09T12:27:45.028Z,30.70
2018-09-09T12:30:13.469Z,31.60
2018-09-09T12:32:42.117Z,32.20
2018-09-09T12:35:10.417Z,33.40
2018-09-09T12:37:38.960Z,34.40
2018-09-09T12:40:08.189Z,35.10
2018-09-09T12:42:36.779Z,35.40
2018-09-09T12:45:11.072Z,35.70
2018-09-09T12:47:44.982Z,35.50
2018-09-09T12:50:13.339Z,35.30
2018-09-09T12:52:41.777Z,35.60
2018-09-09T12:55:10.113Z,35.80
2018-09-09T12:57:38.502Z,35.80
2018-09-09T13:00:07.079Z,35.70
2018-09-09T13:02:35.401Z,35.60
2018-09-09T13:05:03.827Z,35.30
2018-09-09T13:07:32.267Z,34.60
2018-09-09T13:10:00.634Z,33.40
2018-09-09T13:13:34.641Z,31.90
2018-09-09T13:16:03.093Z,31.80
2018-09-09T13:18:31.481Z,32.60
2018-09-09T13:21:22.927Z,32.80
2018-09-09T13:23:51.266Z,32.30
2018-09-09T13:26:19.645Z,31.50
2018-09-09T13:28:48.071Z,29.80
2018-09-09T13:31:17.130Z,28.20
2018-09-09T13:33:45.559Z,27.30
2018-09-09T13:36:14.791Z,27.00
2018-09-09T13:38:44.712Z,26.90
2018-09-09T13:41:18.972Z,27.60
2018-09-09T13:43:47.474Z,28.40
2018-09-09T13:46:15.852Z,29.00
2018-09-09T13:48:46.273Z,29.50
2018-09-09T13:51:23.242Z,30.00
2018-09-09T13:53:52.049Z,30.80
2018-09-09T13:56:27.861Z,31.60
2018-09-09T13:58:56.213Z,31.80
2018-09-09T14:01:24.585Z,31.40
2018-09-09T14:03:52.916Z,30.30
2018-09-09T14:06:21.316Z,29.70
2018-09-09T14:08:49.845Z,29.40
2018-09-09T14:11:18.333Z,27.40
2018-09-09T14:13:46.763Z,26.10
2018-09-09T14:16:15.125Z,24.10
2018-09-09T14:18:43.926Z,23.00
2018-09-09T14:21:12.331Z,22.80
2018-09-09T14:23:42.493Z,23.20
2018-09-09T14:26:17.379Z,22.30
2018-09-09T14:28:45.656Z,21.10
2018-09-09T14:31:14.153Z,20.10
2018-09-09T14:33:47.574Z,19.70
2018-09-09T14:36:15.948Z,19.40
2018-09-09T14:38:44.661Z,19.30
2018-09-09T14:41:14.678Z,19.20
2018-09-09T14:43:43.013Z,20.60
2018-09-09T14:46:11.386Z,21.40
2018-09-09T14:48:39.693Z,22.60
2018-09-09T14:51:07.987Z,22.40
2018-09-09T14:53:36.623Z,22.00
2018-09-09T14:56:04.892Z,21.40
2018-09-09T14:58:33.170Z,22.10
2018-09-09T15:01:01.509Z,24.00
2018-09-09T15:03:29.884Z,25.60
2018-09-09T15:05:58.307Z,26.80
2018-09-09T15:08:26.821Z,27.80
2018-09-09T15:10:55.231Z,28.70
2018-09-09T15:13:23.631Z,29.70
2018-09-09T15:15:52.031Z,30.40
2018-09-09T15:18:20.435Z,31.00
2018-09-09T15:20:48.796Z,31.90
2018-09-09T15:23:17.160Z,32.00
2018-09-09T15:25:45.580Z,32.40
2018-09-09T15:28:14.002Z,32.60
2018-09-09T15:30:42.364Z,32.70
2018-09-09T15:33:10.780Z,32.00
2018-09-09T15:35:39.123Z,31.80
2018-09-09T15:38:07.476Z,31.80
2018-09-09T15:40:35.885Z,32.40
2018-09-09T15:43:04.401Z,32.50
2018-09-09T15:45:33.013Z,32.50
2018-09-09T15:48:01.546Z,32.70
2018-09-09T15:50:30.087Z,32.80
2018-09-09T15:52:58.497Z,33.40
2018-09-09T15:55:26.847Z,33.80
2018-09-09T15:57:55.348Z,34.00
2018-09-09T16:00:23.769Z,34.30
2018-09-09T16:02:52.082Z,34.60
2018-09-09T16:05:20.606Z,34.70
2018-09-09T16:07:49.040Z,35.10
2018-09-09T16:10:17.502Z,35.30
2018-09-09T16:12:45.946Z,35.20
2018-09-09T16:15:14.251Z,35.20
2018-09-09T16:17:42.626Z,35.20
2018-09-09T16:20:10.975Z,35.10
2018-09-09T16:22:39.309Z,35.20
2018-09-09T16:25:07.607Z,35.00
2018-09-09T16:27:35.982Z,35.20
2018-09-09T16:30:04.970Z,35.50
2018-09-09T16:32:33.468Z,35.80
2018-09-09T16:35:01.854Z,36.10
2018-09-09T16:37:30.337Z,36.30
2018-09-09T16:39:58.754Z,36.40
2018-09-09T16:42:27.110Z,36.40
2018-09-09T16:44:56.211Z,36.50
2018-09-09T16:47:24.828Z,36.60
2018-09-09T16:50:02.599Z,36.60
2018-09-09T16:52:31.177Z,36.80
2018-09-09T16:54:59.679Z,37.00
2018-09-09T16:57:28.142Z,37.00
2018-09-09T16:59:56.592Z,37.10
2018-09-09T17:02:24.941Z,37.20
2018-09-09T17:04:53.603Z,37.30
2018-09-09T17:07:21.920Z,37.40
2018-09-09T17:09:50.383Z,37.50
2018-09-09T17:12:18.800Z,37.70
2018-09-09T17:14:47.365Z,37.70
2018-09-09T17:17:17.399Z,37.80
2018-09-09T17:19:47.572Z,37.90
2018-09-09T17:22:15.910Z,38.00
2018-09-09T17:24:45.510Z,38.20
2018-09-09T17:27:13.860Z,38.30
2018-09-09T17:29:42.503Z,38.40
2018-09-09T17:32:10.862Z,38.50
2018-09-09T17:34:39.214Z,38.60
2018-09-09T17:37:07.706Z,38.70
2018-09-09T17:39:37.397Z,38.80
2018-09-09T17:42:05.911Z,38.90
2018-09-09T17:44:34.323Z,38.90
2018-09-09T17:47:02.739Z,39.00
2018-09-09T17:49:31.413Z,39.20
2018-09-09T17:51:59.903Z,39.20
2018-09-09T17:54:28.508Z,39.40
2018-09-09T17:56:56.904Z,39.40
2018-09-09T17:59:26.094Z,39.50
2018-09-09T18:01:54.493Z,39.70
2018-09-09T18:04:23.016Z,39.60
2018-09-09T18:06:51.423Z,40.40
2018-09-09T18:09:19.991Z,39.90
2018-09-09T18:11:48.485Z,39.90
2018-09-09T18:14:17.091Z,40.00
2018-09-09T18:16:45.650Z,40.10
2018-09-09T18:19:14.539Z,40.20
2018-09-09T18:21:43.084Z,40.20
2018-09-09T18:24:11.525Z,40.20
2018-09-09T18:26:39.913Z,40.30
2018-09-09T18:29:08.390Z,40.40
2018-09-09T18:31:36.772Z,40.50
2018-09-09T18:34:05.471Z,40.60
2018-09-09T18:36:34.707Z,40.60
2018-09-09T18:39:03.332Z,40.70
2018-09-09T18:41:31.823Z,40.70
2018-09-09T18:44:00.481Z,40.80
2018-09-09T18:46:28.910Z,40.80
2018-09-09T18:48:57.662Z,40.90
2018-09-09T18:51:26.121Z,40.90
2018-09-09T18:53:55.575Z,41.00
2018-09-09T18:56:24.219Z,41.20
2018-09-09T18:58:52.585Z,41.10
2018-09-09T19:01:21.015Z,41.20
2018-09-09T19:03:49.428Z,41.20
2018-09-09T19:06:18.901Z,41.20
2018-09-09T19:08:47.223Z,41.40
2018-09-09T19:11:15.644Z,41.30
2018-09-09T19:13:45.193Z,41.40
2018-09-09T19:16:13.626Z,41.30
2018-09-09T19:18:42.867Z,41.40
2018-09-09T19:21:11.402Z,41.30
2018-09-09T19:23:39.900Z,41.40
2018-09-09T19:26:08.473Z,41.40
2018-09-09T19:28:36.750Z,41.40
2018-09-09T19:31:05.628Z,41.40
2018-09-09T19:33:34.174Z,41.40
2018-09-09T19:36:02.596Z,41.40
2018-09-09T19:38:31.097Z,41.40
2018-09-09T19:40:59.630Z,41.50
2018-09-09T19:43:28.337Z,41.50
2018-09-09T19:45:56.710Z,41.50
2018-09-09T19:48:25.089Z,41.60
2018-09-09T19:50:53.390Z,41.60
2018-09-09T19:53:22.124Z,41.50
2018-09-09T19:55:56.169Z,42.10
2018-09-09T19:58:28.432Z,42.60
2018-09-09T20:00:57.962Z,43.70
2018-09-09T20:03:26.485Z,44.60
2018-09-09T20:05:58.306Z,45.50
2018-09-09T20:08:34.449Z,46.20
2018-09-09T20:11:02.819Z,45.60
2018-09-09T20:13:31.238Z,45.80
2018-09-09T20:16:00.215Z,46.40
2018-09-09T20:18:28.848Z,45.70
2018-09-09T20:20:59.606Z,46.40
2018-09-09T20:23:31.042Z,46.40
2018-09-09T20:25:59.561Z,46.60
2018-09-09T20:28:28.138Z,46.50
2018-09-09T20:30:56.851Z,46.30
2018-09-09T20:33:25.841Z,46.70
2018-09-09T20:35:54.563Z,46.70
2018-09-09T20:38:23.738Z,47.00
2018-09-09T20:40:52.429Z,47.20
2018-09-09T20:43:21.901Z,47.50
2018-09-09T20:45:50.322Z,47.50
2018-09-09T20:48:18.858Z,47.80
2018-09-09T20:50:47.250Z,47.50
2018-09-09T20:53:15.661Z,47.40
2018-09-09T20:55:43.990Z,47.50
2018-09-09T20:58:12.573Z,47.40
2018-09-09T21:00:40.984Z,47.60
2018-09-09T21:03:09.477Z,48.20
2018-09-09T21:05:39.845Z,48.10
2018-09-09T21:08:09.396Z,49.10
2018-09-09T21:10:38.914Z,48.40
2018-09-09T21:13:07.278Z,48.40
2018-09-09T21:15:35.671Z,48.30
2018-09-09T21:18:04.109Z,48.50
2018-09-09T21:20:32.489Z,48.20
2018-09-09T21:23:00.987Z,47.80
2018-09-09T21:25:29.342Z,48.20
2018-09-09T21:27:57.757Z,48.10
2018-09-09T21:30:26.301Z,48.00
2018-09-09T21:32:54.709Z,48.50
2018-09-09T21:35:23.159Z,48.40
2018-09-09T21:37:51.724Z,48.60
2018-09-09T21:40:20.183Z,48.70
2018-09-09T21:42:48.617Z,49.10
2018-09-09T21:45:16.965Z,49.30
2018-09-09T21:47:45.400Z,49.40
2018-09-09T21:52:52.305Z,49.50
2018-09-09T21:55:21.641Z,49.50
2018-09-09T21:57:50.126Z,49.60
2018-09-09T22:00:18.402Z,49.60
2018-09-09T22:02:47.252Z,49.90
2018-09-09T22:05:15.704Z,49.80
2018-09-09T22:07:45.147Z,50.00
2018-09-09T22:10:13.494Z,50.10
2018-09-09T22:12:41.865Z,50.40
2018-09-09T22:15:11.211Z,50.10
2018-09-09T22:17:39.656Z,49.50
2018-09-09T22:20:08.434Z,49.50
2018-09-09T22:22:36.860Z,49.60
2018-09-09T22:25:05.875Z,49.10
2018-09-09T22:27:34.377Z,48.90
2018-09-09T22:30:02.728Z,49.50
2018-09-09T22:32:31.065Z,49.20
2018-09-09T22:34:59.374Z,49.20
2018-09-09T22:37:35.368Z,49.70
2018-09-09T22:40:03.905Z,49.30
2018-09-09T22:42:32.306Z,49.10
2018-09-09T22:45:01.339Z,48.80
2018-09-09T22:47:29.669Z,49.60
2018-09-09T22:49:58.176Z,49.30
2018-09-09T22:52:26.638Z,49.80
2018-09-09T22:54:55.754Z,49.90
2018-09-09T22:57:24.117Z,49.20
2018-09-09T22:59:52.505Z,48.40
2018-09-09T23:02:21.618Z,47.90
2018-09-09T23:04:50.033Z,47.50
2018-09-09T23:07:18.408Z,47.10
2018-09-09T23:09:46.805Z,46.80
2018-09-09T23:12:15.865Z,46.60
2018-09-09T23:14:44.235Z,46.40
2018-09-09T23:17:12.788Z,46.20
2018-09-09T23:19:41.832Z,46.10
2018-09-09T23:22:10.292Z,45.90
2018-09-09T23:24:38.718Z,45.90
2018-09-09T23:27:07.162Z,45.80
2018-09-09T23:29:35.617Z,45.70
2018-09-09T23:32:03.889Z,45.70
2018-09-09T23:34:32.812Z,45.50
2018-09-09T23:37:01.225Z,45.50
2018-09-09T23:39:29.670Z,45.80
2018-09-09T23:41:58.081Z,45.30
2018-09-09T23:44:26.701Z,45.20
2018-09-09T23:46:55.186Z,45.20
2018-09-09T23:49:23.624Z,45.10
2018-09-09T23:51:53.025Z,45.10
2018-09-09T23:54:21.502Z,44.90
2018-09-09T23:56:49.854Z,44.90
2018-09-09T23:59:18.370Z,44.80
